sensor_id;sensor_type;location;lat;lon;timestamp;temperature;humidity
18513;DHT22;9385;48.380;9.744;2023-02-02T00:01:11;6.10;99.90
18513;DHT22;9385;48.380;9.744;2023-02-02T00:03:39;6.10;99.90
18513;DHT22;9385;48.380;9.744;2023-02-02T00:06:06;6.00;99.90
18513;DHT22;9385;48.380;9.744;2023-02-02T00:08:33;6.00;99.90
18513;DHT22;9385;48.380;9.744;2023-02-02T00:11:01;6.10;99.90
18513;DHT22;9385;48.380;9.744;2023-02-02T00:13:27;6.10;99.90
18513;DHT22;9385;48.380;9.744;2023-02-02T00:15:54;6.10;99.90
18513;DHT22;9385;48.380;9.744;2023-02-02T00:18:21;6.00;99.90
18513;DHT22;9385;48.380;9.744;2023-02-02T00:20:49;6.10;99.90
18513;DHT22;9385;48.380;9.744;2023-02-02T00:23:17;6.10;99.90
18513;DHT22;9385;48.380;9.744;2023-02-02T00:25:43;6.10;99.90
18513;DHT22;9385;48.380;9.744;2023-02-02T00:28:10;6.10;99.90
18513;DHT22;9385;48.380;9.744;2023-02-02T00:30:37;6.10;99.90
18513;DHT22;9385;48.380;9.744;2023-02-02T00:33:04;6.10;99.90
18513;DHT22;9385;48.380;9.744;2023-02-02T00:35:30;6.00;99.90
18513;DHT22;9385;48.380;9.744;2023-02-02T00:37:59;6.00;99.90
18513;DHT22;9385;48.380;9.744;2023-02-02T00:40:25;6.00;99.90
18513;DHT22;9385;48.380;9.744;2023-02-02T00:42:53;6.00;99.90
18513;DHT22;9385;48.380;9.744;2023-02-02T00:45:19;6.00;99.90
18513;DHT22;9385;48.380;9.744;2023-02-02T00:47:47;6.00;99.90
18513;DHT22;9385;48.380;9.744;2023-02-02T00:50:16;6.00;99.90
18513;DHT22;9385;48.380;9.744;2023-02-02T00:52:44;6.00;99.90
18513;DHT22;9385;48.380;9.744;2023-02-02T00:55:13;6.00;99.90
18513;DHT22;9385;48.380;9.744;2023-02-02T00:57:40;6.00;99.90
18513;DHT22;9385;48.380;9.744;2023-02-02T01:00:11;6.00;99.90
18513;DHT22;9385;48.380;9.744;2023-02-02T01:02:39;6.00;99.90
18513;DHT22;9385;48.380;9.744;2023-02-02T01:05:06;6.10;99.90
18513;DHT22;9385;48.380;9.744;2023-02-02T01:07:33;6.00;99.90
18513;DHT22;9385;48.380;9.744;2023-02-02T01:10:00;6.00;99.90
18513;DHT22;9385;48.380;9.744;2023-02-02T01:12:28;6.00;99.90
18513;DHT22;9385;48.380;9.744;2023-02-02T01:14:54;6.00;99.90
18513;DHT22;9385;48.380;9.744;2023-02-02T01:17:21;6.00;99.90
18513;DHT22;9385;48.380;9.744;2023-02-02T01:19:48;6.00;99.90
18513;DHT22;9385;48.380;9.744;2023-02-02T01:22:15;6.10;99.90
18513;DHT22;9385;48.380;9.744;2023-02-02T01:24:41;6.10;99.90
18513;DHT22;9385;48.380;9.744;2023-02-02T01:27:08;6.00;99.90
18513;DHT22;9385;48.380;9.744;2023-02-02T01:29:36;6.00;99.90
18513;DHT22;9385;48.380;9.744;2023-02-02T01:32:03;6.00;99.90
18513;DHT22;9385;48.380;9.744;2023-02-02T01:34:30;6.00;99.90
18513;DHT22;9385;48.380;9.744;2023-02-02T01:36:57;6.00;99.90
18513;DHT22;9385;48.380;9.744;2023-02-02T01:39:24;6.00;99.90
18513;DHT22;9385;48.380;9.744;2023-02-02T01:41:51;6.00;99.90
18513;DHT22;9385;48.380;9.744;2023-02-02T01:47:25;6.00;99.90
18513;DHT22;9385;48.380;9.744;2023-02-02T01:49:54;6.00;99.90
18513;DHT22;9385;48.380;9.744;2023-02-02T01:52:23;6.10;99.90
18513;DHT22;9385;48.380;9.744;2023-02-02T01:54:53;6.00;99.90
18513;DHT22;9385;48.380;9.744;2023-02-02T01:57:25;6.10;99.90
18513;DHT22;9385;48.380;9.744;2023-02-02T01:59:54;6.10;99.90
18513;DHT22;9385;48.380;9.744;2023-02-02T02:02:24;6.10;99.90
18513;DHT22;9385;48.380;9.744;2023-02-02T02:04:53;6.10;99.90
18513;DHT22;9385;48.380;9.744;2023-02-02T02:07:20;6.00;99.90
18513;DHT22;9385;48.380;9.744;2023-02-02T02:09:47;6.10;99.90
18513;DHT22;9385;48.380;9.744;2023-02-02T02:12:15;6.10;99.90
18513;DHT22;9385;48.380;9.744;2023-02-02T02:14:44;6.10;99.90
18513;DHT22;9385;48.380;9.744;2023-02-02T02:17:54;6.10;99.90
18513;DHT22;9385;48.380;9.744;2023-02-02T02:24:29;6.00;99.90
18513;DHT22;9385;48.380;9.744;2023-02-02T02:27:56;6.00;99.90
18513;DHT22;9385;48.380;9.744;2023-02-02T02:30:50;6.00;99.90
18513;DHT22;9385;48.380;9.744;2023-02-02T02:33:25;5.90;99.90
18513;DHT22;9385;48.380;9.744;2023-02-02T02:35:58;5.90;99.90
18513;DHT22;9385;48.380;9.744;2023-02-02T02:38:34;5.90;99.90
18513;DHT22;9385;48.380;9.744;2023-02-02T02:41:07;5.80;99.90
18513;DHT22;9385;48.380;9.744;2023-02-02T02:43:40;5.80;99.90
18513;DHT22;9385;48.380;9.744;2023-02-02T02:46:08;5.80;99.90
18513;DHT22;9385;48.380;9.744;2023-02-02T02:48:37;5.80;99.90
18513;DHT22;9385;48.380;9.744;2023-02-02T02:51:05;5.80;99.90
18513;DHT22;9385;48.380;9.744;2023-02-02T02:53:33;5.80;99.90
18513;DHT22;9385;48.380;9.744;2023-02-02T02:56:07;5.90;99.90
18513;DHT22;9385;48.380;9.744;2023-02-02T02:58:43;5.80;99.90
18513;DHT22;9385;48.380;9.744;2023-02-02T03:01:18;5.80;99.90
18513;DHT22;9385;48.380;9.744;2023-02-02T03:04:03;5.80;99.90
18513;DHT22;9385;48.380;9.744;2023-02-02T03:06:36;5.80;99.90
18513;DHT22;9385;48.380;9.744;2023-02-02T03:09:09;5.80;99.90
18513;DHT22;9385;48.380;9.744;2023-02-02T03:11:36;5.80;99.90
18513;DHT22;9385;48.380;9.744;2023-02-02T03:14:03;5.80;99.90
18513;DHT22;9385;48.380;9.744;2023-02-02T03:16:34;5.80;99.90
18513;DHT22;9385;48.380;9.744;2023-02-02T03:19:03;5.80;99.90
18513;DHT22;9385;48.380;9.744;2023-02-02T03:21:30;5.90;99.90
18513;DHT22;9385;48.380;9.744;2023-02-02T03:23:57;5.90;99.90
18513;DHT22;9385;48.380;9.744;2023-02-02T03:26:24;5.90;99.90
18513;DHT22;9385;48.380;9.744;2023-02-02T03:28:55;5.90;99.90
18513;DHT22;9385;48.380;9.744;2023-02-02T03:31:22;5.90;99.90
18513;DHT22;9385;48.380;9.744;2023-02-02T03:33:49;5.90;99.90
18513;DHT22;9385;48.380;9.744;2023-02-02T03:36:17;5.90;99.90
18513;DHT22;9385;48.380;9.744;2023-02-02T03:38:44;5.90;99.90
18513;DHT22;9385;48.380;9.744;2023-02-02T03:41:10;5.80;99.90
18513;DHT22;9385;48.380;9.744;2023-02-02T03:43:37;5.90;99.90
18513;DHT22;9385;48.380;9.744;2023-02-02T03:46:05;5.80;99.90
18513;DHT22;9385;48.380;9.744;2023-02-02T03:48:34;5.80;99.90
18513;DHT22;9385;48.380;9.744;2023-02-02T03:51:04;5.90;99.90
18513;DHT22;9385;48.380;9.744;2023-02-02T03:53:33;5.90;99.90
18513;DHT22;9385;48.380;9.744;2023-02-02T03:55:59;5.80;99.90
18513;DHT22;9385;48.380;9.744;2023-02-02T03:58:26;5.90;99.90
18513;DHT22;9385;48.380;9.744;2023-02-02T04:00:53;5.90;99.90
18513;DHT22;9385;48.380;9.744;2023-02-02T04:03:20;6.00;99.90
18513;DHT22;9385;48.380;9.744;2023-02-02T04:05:48;6.00;99.90
18513;DHT22;9385;48.380;9.744;2023-02-02T04:08:15;6.00;99.90
18513;DHT22;9385;48.380;9.744;2023-02-02T04:10:43;6.00;99.90
18513;DHT22;9385;48.380;9.744;2023-02-02T04:13:10;6.00;99.90
18513;DHT22;9385;48.380;9.744;2023-02-02T04:15:37;6.00;99.90
18513;DHT22;9385;48.380;9.744;2023-02-02T04:18:04;6.00;99.90
18513;DHT22;9385;48.380;9.744;2023-02-02T04:20:31;6.00;99.90
18513;DHT22;9385;48.380;9.744;2023-02-02T04:22:57;6.00;99.90
18513;DHT22;9385;48.380;9.744;2023-02-02T04:25:24;6.00;99.90
18513;DHT22;9385;48.380;9.744;2023-02-02T04:27:52;6.00;99.90
18513;DHT22;9385;48.380;9.744;2023-02-02T04:30:19;6.00;99.90
18513;DHT22;9385;48.380;9.744;2023-02-02T04:32:46;6.00;99.90
18513;DHT22;9385;48.380;9.744;2023-02-02T04:35:13;6.00;99.90
18513;DHT22;9385;48.380;9.744;2023-02-02T04:37:40;6.10;99.90
18513;DHT22;9385;48.380;9.744;2023-02-02T04:40:08;6.00;99.90
18513;DHT22;9385;48.380;9.744;2023-02-02T04:42:35;6.00;99.90
18513;DHT22;9385;48.380;9.744;2023-02-02T04:45:03;6.10;99.90
18513;DHT22;9385;48.380;9.744;2023-02-02T04:47:30;6.00;99.90
18513;DHT22;9385;48.380;9.744;2023-02-02T04:49:57;6.00;99.90
18513;DHT22;9385;48.380;9.744;2023-02-02T04:52:24;6.00;99.90
18513;DHT22;9385;48.380;9.744;2023-02-02T04:54:51;6.00;99.90
18513;DHT22;9385;48.380;9.744;2023-02-02T04:57:17;6.00;99.90
18513;DHT22;9385;48.380;9.744;2023-02-02T04:59:44;6.00;99.90
18513;DHT22;9385;48.380;9.744;2023-02-02T05:02:12;6.00;99.90
18513;DHT22;9385;48.380;9.744;2023-02-02T05:04:39;6.00;99.90
18513;DHT22;9385;48.380;9.744;2023-02-02T05:07:06;6.10;99.90
18513;DHT22;9385;48.380;9.744;2023-02-02T05:09:33;6.10;99.90
18513;DHT22;9385;48.380;9.744;2023-02-02T05:12:00;6.00;99.90
18513;DHT22;9385;48.380;9.744;2023-02-02T05:14:26;6.00;99.90
18513;DHT22;9385;48.380;9.744;2023-02-02T05:16:53;6.00;99.90
18513;DHT22;9385;48.380;9.744;2023-02-02T05:19:21;6.00;99.90
18513;DHT22;9385;48.380;9.744;2023-02-02T05:21:48;6.00;99.90
18513;DHT22;9385;48.380;9.744;2023-02-02T05:24:15;6.00;99.90
18513;DHT22;9385;48.380;9.744;2023-02-02T05:26:42;6.00;99.90
18513;DHT22;9385;48.380;9.744;2023-02-02T05:29:08;6.00;99.90
18513;DHT22;9385;48.380;9.744;2023-02-02T05:31:35;6.00;99.90
18513;DHT22;9385;48.380;9.744;2023-02-02T05:34:02;6.00;99.90
18513;DHT22;9385;48.380;9.744;2023-02-02T05:36:32;6.00;99.90
18513;DHT22;9385;48.380;9.744;2023-02-02T05:38:59;6.00;99.90
18513;DHT22;9385;48.380;9.744;2023-02-02T05:41:26;6.00;99.90
18513;DHT22;9385;48.380;9.744;2023-02-02T05:43:53;6.00;99.90
18513;DHT22;9385;48.380;9.744;2023-02-02T05:46:19;6.00;99.90
18513;DHT22;9385;48.380;9.744;2023-02-02T05:48:46;6.10;99.90
18513;DHT22;9385;48.380;9.744;2023-02-02T05:51:15;6.10;99.90
18513;DHT22;9385;48.380;9.744;2023-02-02T05:53:45;6.00;99.90
18513;DHT22;9385;48.380;9.744;2023-02-02T05:56:13;6.10;99.90
18513;DHT22;9385;48.380;9.744;2023-02-02T05:58:40;6.10;99.90
18513;DHT22;9385;48.380;9.744;2023-02-02T06:01:07;6.10;99.90
18513;DHT22;9385;48.380;9.744;2023-02-02T06:03:35;6.10;99.90
18513;DHT22;9385;48.380;9.744;2023-02-02T06:06:02;6.10;99.90
18513;DHT22;9385;48.380;9.744;2023-02-02T06:08:28;6.10;99.90
18513;DHT22;9385;48.380;9.744;2023-02-02T06:10:57;6.10;99.90
18513;DHT22;9385;48.380;9.744;2023-02-02T06:13:24;6.10;99.90
18513;DHT22;9385;48.380;9.744;2023-02-02T06:15:51;6.10;99.90
18513;DHT22;9385;48.380;9.744;2023-02-02T06:18:19;6.00;99.90
18513;DHT22;9385;48.380;9.744;2023-02-02T06:20:46;6.00;99.90
18513;DHT22;9385;48.380;9.744;2023-02-02T06:23:14;6.00;99.90
18513;DHT22;9385;48.380;9.744;2023-02-02T06:25:41;6.00;99.90
18513;DHT22;9385;48.380;9.744;2023-02-02T06:28:09;6.00;99.90
18513;DHT22;9385;48.380;9.744;2023-02-02T06:30:36;6.10;99.90
18513;DHT22;9385;48.380;9.744;2023-02-02T06:33:02;6.10;99.90
18513;DHT22;9385;48.380;9.744;2023-02-02T06:35:29;6.10;99.90
18513;DHT22;9385;48.380;9.744;2023-02-02T06:37:57;6.20;99.90
18513;DHT22;9385;48.380;9.744;2023-02-02T06:40:23;6.10;99.90
18513;DHT22;9385;48.380;9.744;2023-02-02T06:42:54;6.10;99.90
18513;DHT22;9385;48.380;9.744;2023-02-02T06:45:22;6.20;99.90
18513;DHT22;9385;48.380;9.744;2023-02-02T06:47:49;6.20;99.90
18513;DHT22;9385;48.380;9.744;2023-02-02T06:50:16;6.20;99.90
18513;DHT22;9385;48.380;9.744;2023-02-02T06:52:46;6.20;99.90
18513;DHT22;9385;48.380;9.744;2023-02-02T06:55:14;6.20;99.90
18513;DHT22;9385;48.380;9.744;2023-02-02T06:57:40;6.20;99.90
18513;DHT22;9385;48.380;9.744;2023-02-02T07:00:08;6.10;99.90
18513;DHT22;9385;48.380;9.744;2023-02-02T07:02:37;6.10;99.90
18513;DHT22;9385;48.380;9.744;2023-02-02T07:05:04;6.10;99.90
18513;DHT22;9385;48.380;9.744;2023-02-02T07:07:31;6.10;99.90
18513;DHT22;9385;48.380;9.744;2023-02-02T07:09:58;6.10;99.90
18513;DHT22;9385;48.380;9.744;2023-02-02T07:12:25;6.10;99.90
18513;DHT22;9385;48.380;9.744;2023-02-02T07:14:52;6.10;99.90
18513;DHT22;9385;48.380;9.744;2023-02-02T07:17:19;6.10;99.90
18513;DHT22;9385;48.380;9.744;2023-02-02T07:19:47;6.10;99.90
18513;DHT22;9385;48.380;9.744;2023-02-02T07:22:14;6.10;99.90
18513;DHT22;9385;48.380;9.744;2023-02-02T07:24:41;6.10;99.90
18513;DHT22;9385;48.380;9.744;2023-02-02T07:27:07;6.10;99.90
18513;DHT22;9385;48.380;9.744;2023-02-02T07:29:34;6.10;99.90
18513;DHT22;9385;48.380;9.744;2023-02-02T07:32:01;6.10;99.90
18513;DHT22;9385;48.380;9.744;2023-02-02T07:34:28;6.10;99.90
18513;DHT22;9385;48.380;9.744;2023-02-02T07:36:56;6.10;99.90
18513;DHT22;9385;48.380;9.744;2023-02-02T07:39:23;6.10;99.90
18513;DHT22;9385;48.380;9.744;2023-02-02T07:41:49;6.10;99.90
18513;DHT22;9385;48.380;9.744;2023-02-02T07:44:16;6.10;99.90
18513;DHT22;9385;48.380;9.744;2023-02-02T07:46:43;6.10;99.90
18513;DHT22;9385;48.380;9.744;2023-02-02T07:49:12;6.10;99.90
18513;DHT22;9385;48.380;9.744;2023-02-02T07:51:40;6.10;99.90
18513;DHT22;9385;48.380;9.744;2023-02-02T07:54:08;6.10;99.90
18513;DHT22;9385;48.380;9.744;2023-02-02T07:56:36;6.20;99.90
18513;DHT22;9385;48.380;9.744;2023-02-02T07:59:03;6.10;99.90
18513;DHT22;9385;48.380;9.744;2023-02-02T08:01:30;6.20;99.90
18513;DHT22;9385;48.380;9.744;2023-02-02T08:03:58;6.10;99.90
18513;DHT22;9385;48.380;9.744;2023-02-02T08:06:26;6.20;99.90
18513;DHT22;9385;48.380;9.744;2023-02-02T08:08:54;6.20;99.90
18513;DHT22;9385;48.380;9.744;2023-02-02T08:11:24;6.20;99.90
18513;DHT22;9385;48.380;9.744;2023-02-02T08:13:53;6.20;99.90
18513;DHT22;9385;48.380;9.744;2023-02-02T08:16:20;6.30;99.90
18513;DHT22;9385;48.380;9.744;2023-02-02T08:18:47;6.30;99.90
18513;DHT22;9385;48.380;9.744;2023-02-02T08:21:14;6.30;99.90
18513;DHT22;9385;48.380;9.744;2023-02-02T08:23:42;6.30;99.90
18513;DHT22;9385;48.380;9.744;2023-02-02T08:26:13;6.30;99.90
18513;DHT22;9385;48.380;9.744;2023-02-02T08:28:43;6.30;99.90
18513;DHT22;9385;48.380;9.744;2023-02-02T08:31:13;6.30;99.90
18513;DHT22;9385;48.380;9.744;2023-02-02T08:33:41;6.40;99.90
18513;DHT22;9385;48.380;9.744;2023-02-02T08:36:10;6.30;99.90
18513;DHT22;9385;48.380;9.744;2023-02-02T08:38:38;6.40;99.90
18513;DHT22;9385;48.380;9.744;2023-02-02T08:41:05;6.40;99.90
18513;DHT22;9385;48.380;9.744;2023-02-02T08:43:32;6.40;99.90
18513;DHT22;9385;48.380;9.744;2023-02-02T08:46:00;6.40;99.90
18513;DHT22;9385;48.380;9.744;2023-02-02T08:48:27;6.40;99.90
18513;DHT22;9385;48.380;9.744;2023-02-02T08:50:55;6.40;99.90
18513;DHT22;9385;48.380;9.744;2023-02-02T08:53:23;6.40;99.90
18513;DHT22;9385;48.380;9.744;2023-02-02T08:55:57;6.40;99.90
18513;DHT22;9385;48.380;9.744;2023-02-02T08:58:25;6.40;99.90
18513;DHT22;9385;48.380;9.744;2023-02-02T09:00:52;6.40;99.90
18513;DHT22;9385;48.380;9.744;2023-02-02T09:03:20;6.40;99.90
18513;DHT22;9385;48.380;9.744;2023-02-02T09:05:47;6.40;99.90
18513;DHT22;9385;48.380;9.744;2023-02-02T09:08:14;6.30;99.90
18513;DHT22;9385;48.380;9.744;2023-02-02T09:10:41;6.30;99.90
18513;DHT22;9385;48.380;9.744;2023-02-02T09:13:08;6.30;99.90
18513;DHT22;9385;48.380;9.744;2023-02-02T09:15:34;6.40;99.90
18513;DHT22;9385;48.380;9.744;2023-02-02T09:18:01;6.30;99.90
18513;DHT22;9385;48.380;9.744;2023-02-02T09:20:29;6.40;99.90
18513;DHT22;9385;48.380;9.744;2023-02-02T09:22:57;6.40;99.90
18513;DHT22;9385;48.380;9.744;2023-02-02T09:25:24;6.40;99.90
18513;DHT22;9385;48.380;9.744;2023-02-02T09:27:52;6.50;99.90
18513;DHT22;9385;48.380;9.744;2023-02-02T09:30:19;6.50;99.90
18513;DHT22;9385;48.380;9.744;2023-02-02T09:32:48;6.50;99.90
18513;DHT22;9385;48.380;9.744;2023-02-02T09:35:15;6.60;99.90
18513;DHT22;9385;48.380;9.744;2023-02-02T09:37:43;6.60;99.90
18513;DHT22;9385;48.380;9.744;2023-02-02T09:40:14;6.60;99.90
18513;DHT22;9385;48.380;9.744;2023-02-02T09:43:05;6.60;99.90
18513;DHT22;9385;48.380;9.744;2023-02-02T09:45:40;6.60;99.90
18513;DHT22;9385;48.380;9.744;2023-02-02T09:48:19;6.60;99.90
18513;DHT22;9385;48.380;9.744;2023-02-02T09:50:51;6.60;99.90
18513;DHT22;9385;48.380;9.744;2023-02-02T09:53:33;6.60;99.90
18513;DHT22;9385;48.380;9.744;2023-02-02T09:56:06;6.60;99.90
18513;DHT22;9385;48.380;9.744;2023-02-02T09:58:40;6.60;99.90
18513;DHT22;9385;48.380;9.744;2023-02-02T10:01:12;6.60;99.90
18513;DHT22;9385;48.380;9.744;2023-02-02T10:03:42;6.60;99.90
18513;DHT22;9385;48.380;9.744;2023-02-02T10:06:24;6.60;99.90
18513;DHT22;9385;48.380;9.744;2023-02-02T10:08:58;6.60;99.90
18513;DHT22;9385;48.380;9.744;2023-02-02T10:11:33;6.60;99.90
18513;DHT22;9385;48.380;9.744;2023-02-02T10:14:10;6.60;99.90
18513;DHT22;9385;48.380;9.744;2023-02-02T10:16:41;6.60;99.90
18513;DHT22;9385;48.380;9.744;2023-02-02T10:19:10;6.60;99.90
18513;DHT22;9385;48.380;9.744;2023-02-02T10:21:42;6.60;99.90
18513;DHT22;9385;48.380;9.744;2023-02-02T10:24:16;6.60;99.90
18513;DHT22;9385;48.380;9.744;2023-02-02T10:26:46;6.60;99.90
18513;DHT22;9385;48.380;9.744;2023-02-02T10:29:16;6.60;99.90
18513;DHT22;9385;48.380;9.744;2023-02-02T10:31:51;6.60;99.90
18513;DHT22;9385;48.380;9.744;2023-02-02T10:34:24;6.60;99.90
18513;DHT22;9385;48.380;9.744;2023-02-02T10:37:01;6.70;99.90
18513;DHT22;9385;48.380;9.744;2023-02-02T10:39:43;6.60;99.90
18513;DHT22;9385;48.380;9.744;2023-02-02T10:42:18;6.60;99.90
18513;DHT22;9385;48.380;9.744;2023-02-02T10:44:51;6.60;99.90
18513;DHT22;9385;48.380;9.744;2023-02-02T10:47:24;6.60;99.90
18513;DHT22;9385;48.380;9.744;2023-02-02T10:50:09;6.60;99.90
18513;DHT22;9385;48.380;9.744;2023-02-02T10:52:42;6.60;99.90
18513;DHT22;9385;48.380;9.744;2023-02-02T10:55:18;6.60;99.90
18513;DHT22;9385;48.380;9.744;2023-02-02T10:57:52;6.60;99.90
18513;DHT22;9385;48.380;9.744;2023-02-02T11:00:25;6.60;99.90
18513;DHT22;9385;48.380;9.744;2023-02-02T11:02:55;6.70;99.90
18513;DHT22;9385;48.380;9.744;2023-02-02T11:05:24;6.70;99.90
18513;DHT22;9385;48.380;9.744;2023-02-02T11:08:14;6.60;99.90
18513;DHT22;9385;48.380;9.744;2023-02-02T11:10:45;6.60;99.90
18513;DHT22;9385;48.380;9.744;2023-02-02T11:13:16;6.70;99.90
18513;DHT22;9385;48.380;9.744;2023-02-02T11:15:45;6.60;99.90
18513;DHT22;9385;48.380;9.744;2023-02-02T11:18:13;6.60;99.90
18513;DHT22;9385;48.380;9.744;2023-02-02T11:20:41;6.60;99.90
18513;DHT22;9385;48.380;9.744;2023-02-02T11:23:16;6.60;99.90
18513;DHT22;9385;48.380;9.744;2023-02-02T11:25:56;6.60;99.90
18513;DHT22;9385;48.380;9.744;2023-02-02T11:28:24;6.60;99.90
18513;DHT22;9385;48.380;9.744;2023-02-02T11:30:55;6.70;99.90
18513;DHT22;9385;48.380;9.744;2023-02-02T11:33:27;6.60;99.90
18513;DHT22;9385;48.380;9.744;2023-02-02T11:35:55;6.60;99.90
18513;DHT22;9385;48.380;9.744;2023-02-02T11:38:23;6.60;99.90
18513;DHT22;9385;48.380;9.744;2023-02-02T11:40:57;6.70;99.90
18513;DHT22;9385;48.380;9.744;2023-02-02T11:43:27;6.60;99.90
18513;DHT22;9385;48.380;9.744;2023-02-02T11:45:57;6.70;99.90
18513;DHT22;9385;48.380;9.744;2023-02-02T11:48:28;6.70;99.90
18513;DHT22;9385;48.380;9.744;2023-02-02T11:50:57;6.70;99.90
18513;DHT22;9385;48.380;9.744;2023-02-02T11:53:27;6.70;99.90
18513;DHT22;9385;48.380;9.744;2023-02-02T11:55:59;6.70;99.90
18513;DHT22;9385;48.380;9.744;2023-02-02T11:58:28;6.70;99.90
18513;DHT22;9385;48.380;9.744;2023-02-02T12:00:58;6.70;99.90
18513;DHT22;9385;48.380;9.744;2023-02-02T12:03:31;6.70;99.90
18513;DHT22;9385;48.380;9.744;2023-02-02T12:05:58;6.70;99.90
18513;DHT22;9385;48.380;9.744;2023-02-02T12:08:28;6.70;99.90
18513;DHT22;9385;48.380;9.744;2023-02-02T12:10:58;6.70;99.90
18513;DHT22;9385;48.380;9.744;2023-02-02T12:16:35;6.80;99.90
18513;DHT22;9385;48.380;9.744;2023-02-02T12:19:33;6.80;99.90
18513;DHT22;9385;48.380;9.744;2023-02-02T12:22:11;6.80;99.90
18513;DHT22;9385;48.380;9.744;2023-02-02T12:24:44;6.90;99.90
18513;DHT22;9385;48.380;9.744;2023-02-02T12:27:24;6.90;99.90
18513;DHT22;9385;48.380;9.744;2023-02-02T12:30:07;6.80;99.90
18513;DHT22;9385;48.380;9.744;2023-02-02T12:32:48;6.80;99.90
18513;DHT22;9385;48.380;9.744;2023-02-02T12:35:31;6.80;99.90
18513;DHT22;9385;48.380;9.744;2023-02-02T12:38:06;6.80;99.90
18513;DHT22;9385;48.380;9.744;2023-02-02T12:40:56;6.90;99.90
18513;DHT22;9385;48.380;9.744;2023-02-02T12:43:32;6.80;99.90
18513;DHT22;9385;48.380;9.744;2023-02-02T12:46:11;6.90;99.90
18513;DHT22;9385;48.380;9.744;2023-02-02T12:48:55;6.90;99.90
18513;DHT22;9385;48.380;9.744;2023-02-02T12:51:37;6.80;99.90
18513;DHT22;9385;48.380;9.744;2023-02-02T12:54:24;6.80;99.90
18513;DHT22;9385;48.380;9.744;2023-02-02T12:57:01;6.80;99.90
18513;DHT22;9385;48.380;9.744;2023-02-02T12:59:50;6.80;99.90
18513;DHT22;9385;48.380;9.744;2023-02-02T13:02:27;6.80;99.90
18513;DHT22;9385;48.380;9.744;2023-02-02T13:05:07;6.80;99.90
18513;DHT22;9385;48.380;9.744;2023-02-02T13:07:39;6.80;99.90
18513;DHT22;9385;48.380;9.744;2023-02-02T13:10:13;6.80;99.90
18513;DHT22;9385;48.380;9.744;2023-02-02T13:12:45;6.80;99.90
18513;DHT22;9385;48.380;9.744;2023-02-02T13:15:18;6.80;99.90
18513;DHT22;9385;48.380;9.744;2023-02-02T13:17:48;6.80;99.90
18513;DHT22;9385;48.380;9.744;2023-02-02T13:20:21;6.80;99.90
18513;DHT22;9385;48.380;9.744;2023-02-02T13:22:52;6.80;99.90
18513;DHT22;9385;48.380;9.744;2023-02-02T13:25:25;6.80;99.90
18513;DHT22;9385;48.380;9.744;2023-02-02T13:27:53;6.90;99.90
18513;DHT22;9385;48.380;9.744;2023-02-02T13:30:27;6.90;99.90
18513;DHT22;9385;48.380;9.744;2023-02-02T13:32:59;6.80;99.90
18513;DHT22;9385;48.380;9.744;2023-02-02T13:35:30;6.90;99.90
18513;DHT22;9385;48.380;9.744;2023-02-02T13:38:03;6.90;99.90
18513;DHT22;9385;48.380;9.744;2023-02-02T13:40:33;6.90;99.90
18513;DHT22;9385;48.380;9.744;2023-02-02T13:43:19;6.90;99.90
18513;DHT22;9385;48.380;9.744;2023-02-02T13:45:58;6.90;99.90
18513;DHT22;9385;48.380;9.744;2023-02-02T13:48:33;6.90;99.90
18513;DHT22;9385;48.380;9.744;2023-02-02T13:51:24;6.90;99.90
18513;DHT22;9385;48.380;9.744;2023-02-02T13:56:58;6.90;99.90
18513;DHT22;9385;48.380;9.744;2023-02-02T13:59:50;6.80;99.90
18513;DHT22;9385;48.380;9.744;2023-02-02T14:02:23;6.80;99.90
18513;DHT22;9385;48.380;9.744;2023-02-02T14:04:52;6.80;99.90
18513;DHT22;9385;48.380;9.744;2023-02-02T14:07:27;6.80;99.90
18513;DHT22;9385;48.380;9.744;2023-02-02T14:09:54;6.70;99.90
18513;DHT22;9385;48.380;9.744;2023-02-02T14:12:28;6.70;99.90
18513;DHT22;9385;48.380;9.744;2023-02-02T14:14:56;6.70;99.90
18513;DHT22;9385;48.380;9.744;2023-02-02T14:17:51;6.70;99.90
18513;DHT22;9385;48.380;9.744;2023-02-02T14:20:40;6.70;99.90
18513;DHT22;9385;48.380;9.744;2023-02-02T14:29:02;6.70;99.90
18513;DHT22;9385;48.380;9.744;2023-02-02T14:31:41;6.60;99.90
18513;DHT22;9385;48.380;9.744;2023-02-02T14:34:26;6.60;99.90
18513;DHT22;9385;48.380;9.744;2023-02-02T14:37:05;6.60;99.90
18513;DHT22;9385;48.380;9.744;2023-02-02T14:39:41;6.60;99.90
18513;DHT22;9385;48.380;9.744;2023-02-02T14:42:22;6.60;99.90
18513;DHT22;9385;48.380;9.744;2023-02-02T14:45:21;6.60;99.90
18513;DHT22;9385;48.380;9.744;2023-02-02T14:47:50;6.60;99.90
18513;DHT22;9385;48.380;9.744;2023-02-02T14:50:24;6.60;99.90
18513;DHT22;9385;48.380;9.744;2023-02-02T14:52:58;6.60;99.90
18513;DHT22;9385;48.380;9.744;2023-02-02T14:55:26;6.60;99.90
18513;DHT22;9385;48.380;9.744;2023-02-02T14:57:55;6.60;99.90
18513;DHT22;9385;48.380;9.744;2023-02-02T15:00:25;6.60;99.90
18513;DHT22;9385;48.380;9.744;2023-02-02T15:02:52;6.60;99.90
18513;DHT22;9385;48.380;9.744;2023-02-02T15:05:43;6.60;99.90
18513;DHT22;9385;48.380;9.744;2023-02-02T15:08:21;6.60;99.90
18513;DHT22;9385;48.380;9.744;2023-02-02T15:11:03;6.60;99.90
18513;DHT22;9385;48.380;9.744;2023-02-02T15:14:09;6.60;99.90
18513;DHT22;9385;48.380;9.744;2023-02-02T15:16:39;6.60;99.90
18513;DHT22;9385;48.380;9.744;2023-02-02T15:19:16;6.60;99.90
18513;DHT22;9385;48.380;9.744;2023-02-02T15:21:48;6.60;99.90
18513;DHT22;9385;48.380;9.744;2023-02-02T15:24:21;6.60;99.90
18513;DHT22;9385;48.380;9.744;2023-02-02T15:26:50;6.60;99.90
18513;DHT22;9385;48.380;9.744;2023-02-02T15:29:28;6.60;99.90
18513;DHT22;9385;48.380;9.744;2023-02-02T15:31:58;6.60;99.90
18513;DHT22;9385;48.380;9.744;2023-02-02T15:34:29;6.60;99.90
18513;DHT22;9385;48.380;9.744;2023-02-02T15:37:05;6.60;99.90
18513;DHT22;9385;48.380;9.744;2023-02-02T15:39:36;6.60;99.90
18513;DHT22;9385;48.380;9.744;2023-02-02T15:42:12;6.60;99.90
18513;DHT22;9385;48.380;9.744;2023-02-02T15:44:57;6.60;99.90
18513;DHT22;9385;48.380;9.744;2023-02-02T15:47:34;6.50;99.90
18513;DHT22;9385;48.380;9.744;2023-02-02T15:50:12;6.50;99.90
18513;DHT22;9385;48.380;9.744;2023-02-02T15:52:46;6.50;99.90
18513;DHT22;9385;48.380;9.744;2023-02-02T15:55:19;6.50;99.90
18513;DHT22;9385;48.380;9.744;2023-02-02T15:57:46;6.60;99.90
18513;DHT22;9385;48.380;9.744;2023-02-02T16:00:32;6.50;99.90
18513;DHT22;9385;48.380;9.744;2023-02-02T16:03:02;6.50;99.90
18513;DHT22;9385;48.380;9.744;2023-02-02T16:05:43;6.50;99.90
18513;DHT22;9385;48.380;9.744;2023-02-02T16:08:17;6.50;99.90
18513;DHT22;9385;48.380;9.744;2023-02-02T16:10:45;6.50;99.90
18513;DHT22;9385;48.380;9.744;2023-02-02T16:13:30;6.50;99.90
18513;DHT22;9385;48.380;9.744;2023-02-02T16:15:59;6.50;99.90
18513;DHT22;9385;48.380;9.744;2023-02-02T16:18:26;6.50;99.90
18513;DHT22;9385;48.380;9.744;2023-02-02T16:20:54;6.50;99.90
18513;DHT22;9385;48.380;9.744;2023-02-02T16:23:28;6.50;99.90
18513;DHT22;9385;48.380;9.744;2023-02-02T16:25:57;6.50;99.90
18513;DHT22;9385;48.380;9.744;2023-02-02T16:28:25;6.50;99.90
18513;DHT22;9385;48.380;9.744;2023-02-02T16:30:53;6.50;99.90
18513;DHT22;9385;48.380;9.744;2023-02-02T16:33:34;6.50;99.90
18513;DHT22;9385;48.380;9.744;2023-02-02T16:36:02;6.50;99.90
18513;DHT22;9385;48.380;9.744;2023-02-02T16:38:33;6.50;99.90
18513;DHT22;9385;48.380;9.744;2023-02-02T16:41:01;6.50;99.90
18513;DHT22;9385;48.380;9.744;2023-02-02T16:43:29;6.50;99.90
18513;DHT22;9385;48.380;9.744;2023-02-02T16:45:57;6.50;99.90